Main page
Satellite images 15-day forecastsClimateMarine weather Cyclones Lightning AirportsFAQ Newsletter About
Weather : Europe Africa North America South America Asia Australia-Oceania Others
Languages Contact

Mexicali, Mexico

General Rodolfo Sánchez Taboada

latitude: 32-37-50N, longitude: 115-14-30W, elevation: 22 m


METAR: MMML 200440Z 12005KT 10SM SKC 30/16 A2974
short-TAF: out of date (50550 hours)
long-TAF: MMML 200507Z 2006/2106 12005KT P6SM SKC FM201600 15010KT P6SM SKC FM210200 13005KT P6SM SKC

Time: 02:55 (07:55 UTC)

Current weather observation

The report was made 3 hours and 15 minutes ago, at 04:40 UTC  
Wind 05 kt from the East/Southeast
Temperature 30°C
Humidity 43%
Pressure 1007 hPa
Visibility 16.1 km
Clear sky

Change units

Forecast

The report was made 2 hours and 43 minutes ago, at 05:12 UTC  
Forecast valid from 20 at 06 UTC to 21 at 06 UTC
Wind 05 kt from the East/Southeast
Visibility 10 km
Clear sky
From 20 at 1600 UTC
Wind 10 kt from the South/Southeast
Visibility 10 km
Clear sky
From 21 at 0200 UTC
Wind 05 kt from the Southeast
Visibility 10 km
Clear sky
The information on this site is subject to a disclaimer
Weather : Europe Africa North America South America Asia Australia-Oceania Others
Satellite images 15-day forecastsClimateMarine weather Cyclones Lightning AirportsFAQ Languages Contact Newsletter About